sensor_id;sensor_type;location;lat;lon;timestamp;P1;durP1;ratioP1;P2;durP2;ratioP2
19810;SDS011;10065;49.632;8.346;2023-10-19T00:01:31;29.63;;;20.00;;
19810;SDS011;10065;49.632;8.346;2023-10-19T00:04:05;31.90;;;20.33;;
19810;SDS011;10065;49.632;8.346;2023-10-19T00:07:26;28.70;;;19.40;;
19810;SDS011;10065;49.632;8.346;2023-10-19T00:09:50;27.77;;;19.07;;
19810;SDS011;10065;49.632;8.346;2023-10-19T00:12:27;31.87;;;19.60;;
19810;SDS011;10065;49.632;8.346;2023-10-19T00:15:07;28.63;;;18.13;;
19810;SDS011;10065;49.632;8.346;2023-10-19T00:17:37;28.73;;;19.80;;
19810;SDS011;10065;49.632;8.346;2023-10-19T00:21:15;28.03;;;19.23;;
19810;SDS011;10065;49.632;8.346;2023-10-19T00:23:58;31.60;;;19.00;;
19810;SDS011;10065;49.632;8.346;2023-10-19T00:26:37;30.20;;;19.83;;
19810;SDS011;10065;49.632;8.346;2023-10-19T00:29:36;28.07;;;18.57;;
19810;SDS011;10065;49.632;8.346;2023-10-19T00:32:32;29.93;;;19.50;;
19810;SDS011;10065;49.632;8.346;2023-10-19T00:50:39;27.77;;;18.40;;
19810;SDS011;10065;49.632;8.346;2023-10-19T00:53:28;33.77;;;18.77;;
19810;SDS011;10065;49.632;8.346;2023-10-19T01:00:07;29.63;;;19.53;;
19810;SDS011;10065;49.632;8.346;2023-10-19T01:03:02;29.70;;;19.17;;
19810;SDS011;10065;49.632;8.346;2023-10-19T01:06:28;29.40;;;18.53;;
19810;SDS011;10065;49.632;8.346;2023-10-19T01:09:03;32.00;;;19.33;;
19810;SDS011;10065;49.632;8.346;2023-10-19T01:11:58;30.33;;;19.33;;
19810;SDS011;10065;49.632;8.346;2023-10-19T01:22:15;30.13;;;20.87;;
19810;SDS011;10065;49.632;8.346;2023-10-19T01:50:15;28.77;;;17.37;;
19810;SDS011;10065;49.632;8.346;2023-10-19T02:16:39;27.53;;;17.63;;
19810;SDS011;10065;49.632;8.346;2023-10-19T02:23:47;22.57;;;15.83;;
19810;SDS011;10065;49.632;8.346;2023-10-19T02:26:26;24.90;;;17.23;;
19810;SDS011;10065;49.632;8.346;2023-10-19T02:48:20;25.53;;;16.83;;
19810;SDS011;10065;49.632;8.346;2023-10-19T02:51:29;25.53;;;17.30;;
19810;SDS011;10065;49.632;8.346;2023-10-19T02:54:08;21.13;;;14.83;;
19810;SDS011;10065;49.632;8.346;2023-10-19T02:57:27;26.40;;;16.37;;
19810;SDS011;10065;49.632;8.346;2023-10-19T03:11:45;24.73;;;16.03;;
19810;SDS011;10065;49.632;8.346;2023-10-19T03:14:45;24.10;;;16.07;;
19810;SDS011;10065;49.632;8.346;2023-10-19T03:17:43;25.43;;;16.73;;
19810;SDS011;10065;49.632;8.346;2023-10-19T03:24:08;25.53;;;17.33;;
19810;SDS011;10065;49.632;8.346;2023-10-19T03:31:04;27.37;;;17.50;;
19810;SDS011;10065;49.632;8.346;2023-10-19T03:37:44;24.73;;;18.00;;
19810;SDS011;10065;49.632;8.346;2023-10-19T03:52:27;27.40;;;18.10;;
19810;SDS011;10065;49.632;8.346;2023-10-19T04:03:09;28.73;;;16.83;;
19810;SDS011;10065;49.632;8.346;2023-10-19T04:10:27;22.73;;;16.70;;
19810;SDS011;10065;49.632;8.346;2023-10-19T04:16:36;24.53;;;16.33;;
19810;SDS011;10065;49.632;8.346;2023-10-19T04:19:51;24.23;;;15.37;;
19810;SDS011;10065;49.632;8.346;2023-10-19T04:23:18;26.77;;;17.70;;
19810;SDS011;10065;49.632;8.346;2023-10-19T04:27:48;32.93;;;17.50;;
19810;SDS011;10065;49.632;8.346;2023-10-19T04:35:44;28.70;;;17.00;;
19810;SDS011;10065;49.632;8.346;2023-10-19T04:37:48;28.07;;;18.33;;
19810;SDS011;10065;49.632;8.346;2023-10-19T05:03:09;35.50;;;21.03;;
19810;SDS011;10065;49.632;8.346;2023-10-19T05:12:43;36.13;;;23.13;;
19810;SDS011;10065;49.632;8.346;2023-10-19T05:15:53;38.87;;;21.67;;
19810;SDS011;10065;49.632;8.346;2023-10-19T05:19:12;38.73;;;24.13;;
19810;SDS011;10065;49.632;8.346;2023-10-19T05:22:09;35.87;;;21.23;;
19810;SDS011;10065;49.632;8.346;2023-10-19T05:36:23;43.77;;;24.07;;
19810;SDS011;10065;49.632;8.346;2023-10-19T05:39:24;40.00;;;22.30;;
19810;SDS011;10065;49.632;8.346;2023-10-19T05:45:40;38.57;;;24.40;;
19810;SDS011;10065;49.632;8.346;2023-10-19T05:48:21;42.87;;;23.97;;
19810;SDS011;10065;49.632;8.346;2023-10-19T05:54:16;32.63;;;21.93;;
19810;SDS011;10065;49.632;8.346;2023-10-19T05:57:26;38.90;;;24.60;;
19810;SDS011;10065;49.632;8.346;2023-10-19T06:00:55;30.77;;;19.83;;
19810;SDS011;10065;49.632;8.346;2023-10-19T06:04:01;36.17;;;21.90;;
19810;SDS011;10065;49.632;8.346;2023-10-19T06:11:17;32.27;;;20.50;;
19810;SDS011;10065;49.632;8.346;2023-10-19T06:25:59;28.93;;;18.13;;
19810;SDS011;10065;49.632;8.346;2023-10-19T06:29:39;28.70;;;19.07;;
19810;SDS011;10065;49.632;8.346;2023-10-19T06:31:56;26.27;;;18.80;;
19810;SDS011;10065;49.632;8.346;2023-10-19T06:34:32;26.97;;;18.93;;
19810;SDS011;10065;49.632;8.346;2023-10-19T06:37:10;31.73;;;19.13;;
19810;SDS011;10065;49.632;8.346;2023-10-19T06:39:44;27.73;;;18.10;;
19810;SDS011;10065;49.632;8.346;2023-10-19T06:42:35;25.33;;;17.93;;
19810;SDS011;10065;49.632;8.346;2023-10-19T06:45:15;25.63;;;17.27;;
19810;SDS011;10065;49.632;8.346;2023-10-19T06:47:49;26.73;;;16.80;;
19810;SDS011;10065;49.632;8.346;2023-10-19T06:50:22;30.20;;;17.50;;
19810;SDS011;10065;49.632;8.346;2023-10-19T06:52:52;23.73;;;17.10;;
19810;SDS011;10065;49.632;8.346;2023-10-19T07:01:35;23.27;;;16.27;;
19810;SDS011;10065;49.632;8.346;2023-10-19T07:04:21;26.10;;;16.10;;
19810;SDS011;10065;49.632;8.346;2023-10-19T07:07:46;25.63;;;15.10;;
19810;SDS011;10065;49.632;8.346;2023-10-19T07:10:18;22.07;;;14.60;;
19810;SDS011;10065;49.632;8.346;2023-10-19T07:12:54;20.53;;;14.57;;
19810;SDS011;10065;49.632;8.346;2023-10-19T07:15:38;28.10;;;15.97;;
19810;SDS011;10065;49.632;8.346;2023-10-19T07:18:10;23.03;;;16.53;;
19810;SDS011;10065;49.632;8.346;2023-10-19T07:20:53;28.30;;;16.33;;
19810;SDS011;10065;49.632;8.346;2023-10-19T07:23:31;20.97;;;14.53;;
19810;SDS011;10065;49.632;8.346;2023-10-19T07:26:04;23.80;;;15.33;;
19810;SDS011;10065;49.632;8.346;2023-10-19T07:28:50;22.70;;;15.13;;
19810;SDS011;10065;49.632;8.346;2023-10-19T07:31:56;20.37;;;14.97;;
19810;SDS011;10065;49.632;8.346;2023-10-19T07:34:43;21.70;;;15.27;;
19810;SDS011;10065;49.632;8.346;2023-10-19T07:37:44;23.57;;;16.17;;
19810;SDS011;10065;49.632;8.346;2023-10-19T07:40:36;21.57;;;16.07;;
19810;SDS011;10065;49.632;8.346;2023-10-19T07:55:33;23.33;;;15.97;;
19810;SDS011;10065;49.632;8.346;2023-10-19T08:01:10;24.03;;;16.17;;
19810;SDS011;10065;49.632;8.346;2023-10-19T08:04:18;23.40;;;16.43;;
19810;SDS011;10065;49.632;8.346;2023-10-19T08:07:09;17.93;;;13.60;;
19810;SDS011;10065;49.632;8.346;2023-10-19T08:10:52;21.13;;;14.90;;
19810;SDS011;10065;49.632;8.346;2023-10-19T08:16:47;19.70;;;14.93;;
19810;SDS011;10065;49.632;8.346;2023-10-19T08:19:43;20.03;;;14.87;;
19810;SDS011;10065;49.632;8.346;2023-10-19T08:22:38;19.27;;;13.20;;
19810;SDS011;10065;49.632;8.346;2023-10-19T08:29:12;21.63;;;15.43;;
19810;SDS011;10065;49.632;8.346;2023-10-19T08:32:50;19.43;;;13.30;;
19810;SDS011;10065;49.632;8.346;2023-10-19T08:36:55;21.03;;;15.00;;
19810;SDS011;10065;49.632;8.346;2023-10-19T08:39:31;19.37;;;15.20;;
19810;SDS011;10065;49.632;8.346;2023-10-19T08:42:36;20.90;;;14.93;;
19810;SDS011;10065;49.632;8.346;2023-10-19T08:45:41;22.20;;;16.40;;
19810;SDS011;10065;49.632;8.346;2023-10-19T08:48:33;23.13;;;16.23;;
19810;SDS011;10065;49.632;8.346;2023-10-19T08:51:33;21.63;;;16.53;;
19810;SDS011;10065;49.632;8.346;2023-10-19T08:54:50;20.40;;;13.77;;
19810;SDS011;10065;49.632;8.346;2023-10-19T08:57:24;18.87;;;13.17;;
19810;SDS011;10065;49.632;8.346;2023-10-19T09:00:10;20.30;;;15.60;;
19810;SDS011;10065;49.632;8.346;2023-10-19T09:03:09;19.40;;;13.27;;
19810;SDS011;10065;49.632;8.346;2023-10-19T09:05:47;16.97;;;12.63;;
19810;SDS011;10065;49.632;8.346;2023-10-19T09:08:36;14.20;;;11.50;;
19810;SDS011;10065;49.632;8.346;2023-10-19T09:11:19;17.33;;;12.77;;
19810;SDS011;10065;49.632;8.346;2023-10-19T09:15:10;17.97;;;12.27;;
19810;SDS011;10065;49.632;8.346;2023-10-19T09:21:33;17.13;;;13.60;;
19810;SDS011;10065;49.632;8.346;2023-10-19T09:24:23;15.40;;;11.10;;
19810;SDS011;10065;49.632;8.346;2023-10-19T09:27:20;18.87;;;12.97;;
19810;SDS011;10065;49.632;8.346;2023-10-19T09:30:03;20.20;;;14.00;;
19810;SDS011;10065;49.632;8.346;2023-10-19T09:32:56;17.60;;;14.43;;
19810;SDS011;10065;49.632;8.346;2023-10-19T09:41:47;20.33;;;13.37;;
19810;SDS011;10065;49.632;8.346;2023-10-19T09:44:55;18.97;;;12.87;;
19810;SDS011;10065;49.632;8.346;2023-10-19T09:47:38;20.67;;;14.07;;
19810;SDS011;10065;49.632;8.346;2023-10-19T09:53:28;21.10;;;14.53;;
19810;SDS011;10065;49.632;8.346;2023-10-19T09:56:06;17.70;;;11.80;;
19810;SDS011;10065;49.632;8.346;2023-10-19T09:59:21;23.17;;;14.00;;
19810;SDS011;10065;49.632;8.346;2023-10-19T10:02:10;22.13;;;14.70;;
19810;SDS011;10065;49.632;8.346;2023-10-19T10:04:52;22.47;;;14.37;;
19810;SDS011;10065;49.632;8.346;2023-10-19T10:07:22;20.07;;;14.60;;
19810;SDS011;10065;49.632;8.346;2023-10-19T10:10:13;19.20;;;13.47;;
19810;SDS011;10065;49.632;8.346;2023-10-19T10:12:49;19.93;;;13.40;;
19810;SDS011;10065;49.632;8.346;2023-10-19T10:15:25;19.63;;;14.53;;
19810;SDS011;10065;49.632;8.346;2023-10-19T10:18:13;21.30;;;13.73;;
19810;SDS011;10065;49.632;8.346;2023-10-19T10:21:04;19.67;;;13.07;;
19810;SDS011;10065;49.632;8.346;2023-10-19T10:23:58;19.77;;;13.47;;
19810;SDS011;10065;49.632;8.346;2023-10-19T10:38:37;21.03;;;16.33;;
19810;SDS011;10065;49.632;8.346;2023-10-19T10:41:37;22.83;;;15.70;;
19810;SDS011;10065;49.632;8.346;2023-10-19T10:58:24;23.37;;;16.30;;
19810;SDS011;10065;49.632;8.346;2023-10-19T11:05:06;21.50;;;15.13;;
19810;SDS011;10065;49.632;8.346;2023-10-19T11:34:11;21.67;;;18.60;;
19810;SDS011;10065;49.632;8.346;2023-10-19T11:40:58;19.40;;;13.20;;
19810;SDS011;10065;49.632;8.346;2023-10-19T11:44:30;27.03;;;18.87;;
19810;SDS011;10065;49.632;8.346;2023-10-19T12:30:34;63.13;;;28.50;;
19810;SDS011;10065;49.632;8.346;2023-10-19T12:33:04;42.13;;;22.70;;
19810;SDS011;10065;49.632;8.346;2023-10-19T12:35:55;35.30;;;19.57;;
19810;SDS011;10065;49.632;8.346;2023-10-19T12:38:25;26.50;;;20.87;;
19810;SDS011;10065;49.632;8.346;2023-10-19T12:40:57;24.30;;;16.90;;
19810;SDS011;10065;49.632;8.346;2023-10-19T12:43:25;29.97;;;21.67;;
19810;SDS011;10065;49.632;8.346;2023-10-19T12:45:56;32.23;;;23.37;;
19810;SDS011;10065;49.632;8.346;2023-10-19T12:48:25;32.07;;;23.63;;
19810;SDS011;10065;49.632;8.346;2023-10-19T12:51:01;37.03;;;24.97;;
19810;SDS011;10065;49.632;8.346;2023-10-19T12:53:30;26.07;;;18.70;;
19810;SDS011;10065;49.632;8.346;2023-10-19T12:56:09;36.73;;;23.87;;
19810;SDS011;10065;49.632;8.346;2023-10-19T12:58:38;30.77;;;22.93;;
19810;SDS011;10065;49.632;8.346;2023-10-19T13:01:13;29.30;;;20.00;;
19810;SDS011;10065;49.632;8.346;2023-10-19T13:03:48;31.90;;;23.53;;
19810;SDS011;10065;49.632;8.346;2023-10-19T13:06:18;30.00;;;23.03;;
19810;SDS011;10065;49.632;8.346;2023-10-19T13:09:09;31.73;;;23.73;;
19810;SDS011;10065;49.632;8.346;2023-10-19T13:11:42;33.53;;;24.83;;
19810;SDS011;10065;49.632;8.346;2023-10-19T13:14:11;30.27;;;21.93;;
19810;SDS011;10065;49.632;8.346;2023-10-19T13:16:41;31.50;;;23.10;;
19810;SDS011;10065;49.632;8.346;2023-10-19T13:19:10;33.43;;;23.37;;
19810;SDS011;10065;49.632;8.346;2023-10-19T13:21:39;33.57;;;24.07;;
19810;SDS011;10065;49.632;8.346;2023-10-19T13:24:11;30.43;;;21.40;;
19810;SDS011;10065;49.632;8.346;2023-10-19T13:26:40;34.23;;;24.23;;
19810;SDS011;10065;49.632;8.346;2023-10-19T13:29:12;38.73;;;23.47;;
19810;SDS011;10065;49.632;8.346;2023-10-19T13:31:43;33.53;;;24.60;;
19810;SDS011;10065;49.632;8.346;2023-10-19T13:34:16;32.47;;;23.80;;
19810;SDS011;10065;49.632;8.346;2023-10-19T13:36:44;35.17;;;23.63;;
19810;SDS011;10065;49.632;8.346;2023-10-19T13:39:13;28.70;;;20.23;;
19810;SDS011;10065;49.632;8.346;2023-10-19T13:41:43;32.53;;;22.30;;
19810;SDS011;10065;49.632;8.346;2023-10-19T13:44:11;29.10;;;20.77;;
19810;SDS011;10065;49.632;8.346;2023-10-19T13:46:39;30.73;;;21.30;;
19810;SDS011;10065;49.632;8.346;2023-10-19T13:49:09;25.53;;;19.53;;
19810;SDS011;10065;49.632;8.346;2023-10-19T13:51:37;29.17;;;20.73;;
19810;SDS011;10065;49.632;8.346;2023-10-19T13:54:06;25.60;;;17.83;;
19810;SDS011;10065;49.632;8.346;2023-10-19T13:56:34;26.97;;;18.87;;
19810;SDS011;10065;49.632;8.346;2023-10-19T13:59:02;26.53;;;16.90;;
19810;SDS011;10065;49.632;8.346;2023-10-19T14:01:36;24.23;;;16.97;;
19810;SDS011;10065;49.632;8.346;2023-10-19T14:04:04;29.73;;;16.43;;
19810;SDS011;10065;49.632;8.346;2023-10-19T14:06:34;22.97;;;16.27;;
19810;SDS011;10065;49.632;8.346;2023-10-19T14:09:22;25.07;;;16.73;;
19810;SDS011;10065;49.632;8.346;2023-10-19T14:11:54;18.80;;;15.90;;
19810;SDS011;10065;49.632;8.346;2023-10-19T14:14:30;24.17;;;15.00;;
19810;SDS011;10065;49.632;8.346;2023-10-19T14:16:58;21.00;;;13.27;;
19810;SDS011;10065;49.632;8.346;2023-10-19T14:19:27;21.00;;;14.73;;
19810;SDS011;10065;49.632;8.346;2023-10-19T14:22:09;21.00;;;14.00;;
19810;SDS011;10065;49.632;8.346;2023-10-19T14:25:02;18.10;;;12.33;;
19810;SDS011;10065;49.632;8.346;2023-10-19T14:27:46;20.97;;;12.27;;
19810;SDS011;10065;49.632;8.346;2023-10-19T14:30:16;12.83;;;9.17;;
19810;SDS011;10065;49.632;8.346;2023-10-19T14:32:50;16.93;;;12.40;;
19810;SDS011;10065;49.632;8.346;2023-10-19T14:38:12;18.20;;;11.97;;
19810;SDS011;10065;49.632;8.346;2023-10-19T14:40:44;19.80;;;12.30;;
19810;SDS011;10065;49.632;8.346;2023-10-19T14:43:15;18.87;;;10.93;;
19810;SDS011;10065;49.632;8.346;2023-10-19T14:45:44;14.80;;;10.70;;
19810;SDS011;10065;49.632;8.346;2023-10-19T14:48:21;17.93;;;11.40;;
19810;SDS011;10065;49.632;8.346;2023-10-19T14:51:01;18.27;;;11.40;;
19810;SDS011;10065;49.632;8.346;2023-10-19T14:53:36;16.93;;;11.43;;
19810;SDS011;10065;49.632;8.346;2023-10-19T14:56:08;16.03;;;10.33;;
19810;SDS011;10065;49.632;8.346;2023-10-19T14:58:36;14.50;;;10.60;;
19810;SDS011;10065;49.632;8.346;2023-10-19T15:01:06;14.47;;;9.80;;
19810;SDS011;10065;49.632;8.346;2023-10-19T15:03:41;18.53;;;11.33;;
19810;SDS011;10065;49.632;8.346;2023-10-19T15:06:17;16.77;;;9.97;;
19810;SDS011;10065;49.632;8.346;2023-10-19T15:09:02;15.43;;;11.30;;
19810;SDS011;10065;49.632;8.346;2023-10-19T15:11:47;12.83;;;8.23;;
19810;SDS011;10065;49.632;8.346;2023-10-19T15:14:15;24.60;;;10.83;;
19810;SDS011;10065;49.632;8.346;2023-10-19T15:16:44;16.50;;;11.53;;
19810;SDS011;10065;49.632;8.346;2023-10-19T15:19:12;17.63;;;11.70;;
19810;SDS011;10065;49.632;8.346;2023-10-19T15:21:45;19.57;;;12.93;;
19810;SDS011;10065;49.632;8.346;2023-10-19T15:24:23;19.17;;;13.43;;
19810;SDS011;10065;49.632;8.346;2023-10-19T15:26:52;15.50;;;11.43;;
19810;SDS011;10065;49.632;8.346;2023-10-19T15:29:20;16.73;;;12.03;;
19810;SDS011;10065;49.632;8.346;2023-10-19T15:31:49;19.77;;;12.50;;
19810;SDS011;10065;49.632;8.346;2023-10-19T15:34:18;15.10;;;10.83;;
19810;SDS011;10065;49.632;8.346;2023-10-19T15:36:47;21.63;;;10.70;;
19810;SDS011;10065;49.632;8.346;2023-10-19T15:39:18;20.00;;;14.53;;
19810;SDS011;10065;49.632;8.346;2023-10-19T15:41:51;21.30;;;12.90;;
19810;SDS011;10065;49.632;8.346;2023-10-19T15:44:19;18.03;;;14.13;;
19810;SDS011;10065;49.632;8.346;2023-10-19T15:47:03;23.87;;;14.60;;
19810;SDS011;10065;49.632;8.346;2023-10-19T15:49:36;16.73;;;12.90;;
19810;SDS011;10065;49.632;8.346;2023-10-19T15:52:14;19.77;;;13.77;;
19810;SDS011;10065;49.632;8.346;2023-10-19T15:54:43;22.80;;;14.83;;
19810;SDS011;10065;49.632;8.346;2023-10-19T15:57:15;21.83;;;14.67;;
19810;SDS011;10065;49.632;8.346;2023-10-19T15:59:44;23.83;;;15.87;;
19810;SDS011;10065;49.632;8.346;2023-10-19T16:02:14;22.57;;;14.90;;
19810;SDS011;10065;49.632;8.346;2023-10-19T16:04:44;20.30;;;14.70;;
19810;SDS011;10065;49.632;8.346;2023-10-19T16:07:13;16.97;;;10.63;;
19810;SDS011;10065;49.632;8.346;2023-10-19T16:09:42;15.13;;;9.73;;
19810;SDS011;10065;49.632;8.346;2023-10-19T16:12:17;18.70;;;12.20;;
19810;SDS011;10065;49.632;8.346;2023-10-19T16:14:46;25.87;;;15.07;;
19810;SDS011;10065;49.632;8.346;2023-10-19T16:17:15;22.67;;;15.30;;
19810;SDS011;10065;49.632;8.346;2023-10-19T16:19:45;21.33;;;13.83;;
19810;SDS011;10065;49.632;8.346;2023-10-19T16:22:14;22.10;;;14.33;;
19810;SDS011;10065;49.632;8.346;2023-10-19T16:24:43;21.13;;;14.87;;
19810;SDS011;10065;49.632;8.346;2023-10-19T16:27:12;18.60;;;14.63;;
19810;SDS011;10065;49.632;8.346;2023-10-19T16:29:42;18.73;;;13.80;;
19810;SDS011;10065;49.632;8.346;2023-10-19T16:32:10;24.67;;;14.00;;
19810;SDS011;10065;49.632;8.346;2023-10-19T16:34:39;23.87;;;14.20;;
19810;SDS011;10065;49.632;8.346;2023-10-19T16:37:07;16.57;;;11.37;;
19810;SDS011;10065;49.632;8.346;2023-10-19T16:39:35;14.03;;;9.23;;
19810;SDS011;10065;49.632;8.346;2023-10-19T16:42:03;14.50;;;9.53;;
19810;SDS011;10065;49.632;8.346;2023-10-19T16:44:32;15.13;;;8.90;;
19810;SDS011;10065;49.632;8.346;2023-10-19T16:47:01;11.40;;;8.37;;
19810;SDS011;10065;49.632;8.346;2023-10-19T16:49:30;20.97;;;14.30;;
19810;SDS011;10065;49.632;8.346;2023-10-19T16:52:01;20.67;;;14.77;;
19810;SDS011;10065;49.632;8.346;2023-10-19T16:54:30;22.60;;;15.30;;
19810;SDS011;10065;49.632;8.346;2023-10-19T16:56:59;21.50;;;13.83;;
19810;SDS011;10065;49.632;8.346;2023-10-19T16:59:28;18.30;;;13.90;;
19810;SDS011;10065;49.632;8.346;2023-10-19T17:01:57;18.53;;;11.57;;
19810;SDS011;10065;49.632;8.346;2023-10-19T17:04:27;23.23;;;13.03;;
19810;SDS011;10065;49.632;8.346;2023-10-19T17:06:58;22.97;;;14.40;;
19810;SDS011;10065;49.632;8.346;2023-10-19T17:09:26;21.60;;;16.10;;
19810;SDS011;10065;49.632;8.346;2023-10-19T17:11:54;24.20;;;15.97;;
19810;SDS011;10065;49.632;8.346;2023-10-19T17:14:22;20.57;;;14.73;;
19810;SDS011;10065;49.632;8.346;2023-10-19T17:16:52;20.57;;;14.17;;
19810;SDS011;10065;49.632;8.346;2023-10-19T17:19:22;25.33;;;14.37;;
19810;SDS011;10065;49.632;8.346;2023-10-19T17:21:56;21.33;;;14.63;;
19810;SDS011;10065;49.632;8.346;2023-10-19T17:24:25;25.30;;;14.70;;
19810;SDS011;10065;49.632;8.346;2023-10-19T17:26:55;21.03;;;15.37;;
19810;SDS011;10065;49.632;8.346;2023-10-19T17:29:23;22.30;;;14.47;;
19810;SDS011;10065;49.632;8.346;2023-10-19T17:31:52;24.07;;;16.60;;
19810;SDS011;10065;49.632;8.346;2023-10-19T17:34:21;20.90;;;15.40;;
19810;SDS011;10065;49.632;8.346;2023-10-19T17:36:49;22.23;;;15.40;;
19810;SDS011;10065;49.632;8.346;2023-10-19T17:39:19;30.63;;;16.67;;
19810;SDS011;10065;49.632;8.346;2023-10-19T17:41:49;27.80;;;17.17;;
19810;SDS011;10065;49.632;8.346;2023-10-19T17:44:20;29.67;;;17.47;;
19810;SDS011;10065;49.632;8.346;2023-10-19T17:46:48;24.43;;;17.50;;
19810;SDS011;10065;49.632;8.346;2023-10-19T17:49:26;27.67;;;17.60;;
19810;SDS011;10065;49.632;8.346;2023-10-19T17:51:55;25.37;;;17.37;;
19810;SDS011;10065;49.632;8.346;2023-10-19T17:54:24;28.80;;;17.53;;
19810;SDS011;10065;49.632;8.346;2023-10-19T17:56:53;26.97;;;16.67;;
19810;SDS011;10065;49.632;8.346;2023-10-19T17:59:21;27.33;;;17.00;;
19810;SDS011;10065;49.632;8.346;2023-10-19T18:01:50;24.43;;;16.77;;
19810;SDS011;10065;49.632;8.346;2023-10-19T18:04:19;25.43;;;18.60;;
19810;SDS011;10065;49.632;8.346;2023-10-19T18:06:55;27.03;;;18.00;;
19810;SDS011;10065;49.632;8.346;2023-10-19T18:09:31;26.70;;;16.97;;
19810;SDS011;10065;49.632;8.346;2023-10-19T18:12:05;22.70;;;17.80;;
19810;SDS011;10065;49.632;8.346;2023-10-19T18:14:34;29.07;;;18.27;;
19810;SDS011;10065;49.632;8.346;2023-10-19T18:17:02;24.30;;;18.87;;
19810;SDS011;10065;49.632;8.346;2023-10-19T18:19:36;27.57;;;18.23;;
19810;SDS011;10065;49.632;8.346;2023-10-19T18:22:06;29.07;;;19.53;;
19810;SDS011;10065;49.632;8.346;2023-10-19T18:24:36;26.17;;;18.70;;
19810;SDS011;10065;49.632;8.346;2023-10-19T18:27:05;22.63;;;16.60;;
19810;SDS011;10065;49.632;8.346;2023-10-19T18:29:33;22.40;;;14.77;;
19810;SDS011;10065;49.632;8.346;2023-10-19T18:32:01;21.90;;;13.90;;
19810;SDS011;10065;49.632;8.346;2023-10-19T18:34:30;28.53;;;18.30;;
19810;SDS011;10065;49.632;8.346;2023-10-19T18:37:03;25.17;;;18.23;;
19810;SDS011;10065;49.632;8.346;2023-10-19T18:39:33;28.63;;;18.10;;
19810;SDS011;10065;49.632;8.346;2023-10-19T18:42:03;21.47;;;14.30;;
19810;SDS011;10065;49.632;8.346;2023-10-19T18:44:36;23.13;;;14.60;;
19810;SDS011;10065;49.632;8.346;2023-10-19T18:47:05;19.63;;;12.87;;
19810;SDS011;10065;49.632;8.346;2023-10-19T18:49:34;24.63;;;15.73;;
19810;SDS011;10065;49.632;8.346;2023-10-19T18:52:03;22.50;;;14.73;;
19810;SDS011;10065;49.632;8.346;2023-10-19T18:54:34;16.47;;;11.70;;
19810;SDS011;10065;49.632;8.346;2023-10-19T18:57:06;18.93;;;12.73;;
19810;SDS011;10065;49.632;8.346;2023-10-19T18:59:43;15.57;;;11.20;;
19810;SDS011;10065;49.632;8.346;2023-10-19T19:02:18;19.30;;;12.70;;
19810;SDS011;10065;49.632;8.346;2023-10-19T19:05:21;22.37;;;13.20;;
19810;SDS011;10065;49.632;8.346;2023-10-19T19:07:46;19.60;;;11.83;;
19810;SDS011;10065;49.632;8.346;2023-10-19T19:10:17;20.43;;;13.53;;
19810;SDS011;10065;49.632;8.346;2023-10-19T19:12:48;23.23;;;14.73;;
19810;SDS011;10065;49.632;8.346;2023-10-19T19:15:25;20.30;;;13.80;;
19810;SDS011;10065;49.632;8.346;2023-10-19T19:17:54;20.87;;;12.67;;
19810;SDS011;10065;49.632;8.346;2023-10-19T19:20:26;16.67;;;10.73;;
19810;SDS011;10065;49.632;8.346;2023-10-19T19:23:02;15.70;;;11.03;;
19810;SDS011;10065;49.632;8.346;2023-10-19T19:25:34;15.83;;;10.60;;
19810;SDS011;10065;49.632;8.346;2023-10-19T19:28:05;16.57;;;9.57;;
19810;SDS011;10065;49.632;8.346;2023-10-19T19:30:35;16.57;;;9.97;;
19810;SDS011;10065;49.632;8.346;2023-10-19T19:33:04;16.23;;;10.47;;
19810;SDS011;10065;49.632;8.346;2023-10-19T19:35:37;14.53;;;10.43;;
19810;SDS011;10065;49.632;8.346;2023-10-19T19:38:06;14.23;;;9.90;;
19810;SDS011;10065;49.632;8.346;2023-10-19T19:40:36;12.73;;;8.73;;
19810;SDS011;10065;49.632;8.346;2023-10-19T19:43:06;18.77;;;9.50;;
19810;SDS011;10065;49.632;8.346;2023-10-19T19:45:38;13.67;;;7.73;;
19810;SDS011;10065;49.632;8.346;2023-10-19T19:48:12;15.40;;;8.90;;
19810;SDS011;10065;49.632;8.346;2023-10-19T19:50:41;15.60;;;9.70;;
19810;SDS011;10065;49.632;8.346;2023-10-19T19:53:09;14.77;;;9.77;;
19810;SDS011;10065;49.632;8.346;2023-10-19T19:55:41;13.23;;;9.47;;
19810;SDS011;10065;49.632;8.346;2023-10-19T19:58:11;13.70;;;9.37;;
19810;SDS011;10065;49.632;8.346;2023-10-19T20:00:39;17.23;;;9.63;;
19810;SDS011;10065;49.632;8.346;2023-10-19T20:03:08;14.00;;;9.33;;
19810;SDS011;10065;49.632;8.346;2023-10-19T20:05:37;13.83;;;9.13;;
19810;SDS011;10065;49.632;8.346;2023-10-19T20:08:05;11.87;;;9.40;;
19810;SDS011;10065;49.632;8.346;2023-10-19T20:10:34;15.63;;;9.50;;
19810;SDS011;10065;49.632;8.346;2023-10-19T20:28:00;13.40;;;8.70;;
19810;SDS011;10065;49.632;8.346;2023-10-19T20:30:59;14.43;;;8.00;;
19810;SDS011;10065;49.632;8.346;2023-10-19T20:33:52;12.47;;;8.50;;
19810;SDS011;10065;49.632;8.346;2023-10-19T20:36:38;10.80;;;7.47;;
19810;SDS011;10065;49.632;8.346;2023-10-19T20:39:37;11.53;;;7.53;;
19810;SDS011;10065;49.632;8.346;2023-10-19T20:42:42;12.40;;;6.63;;
19810;SDS011;10065;49.632;8.346;2023-10-19T22:21:25;10.43;;;7.10;;
19810;SDS011;10065;49.632;8.346;2023-10-19T22:24:24;11.10;;;8.33;;
19810;SDS011;10065;49.632;8.346;2023-10-19T22:27:44;10.03;;;7.97;;
19810;SDS011;10065;49.632;8.346;2023-10-19T22:31:00;10.50;;;8.27;;
19810;SDS011;10065;49.632;8.346;2023-10-19T22:34:04;10.50;;;8.10;;
19810;SDS011;10065;49.632;8.346;2023-10-19T22:40:31;10.67;;;7.67;;
19810;SDS011;10065;49.632;8.346;2023-10-19T22:43:26;9.87;;;7.50;;
19810;SDS011;10065;49.632;8.346;2023-10-19T22:46:25;9.07;;;7.13;;
19810;SDS011;10065;49.632;8.346;2023-10-19T22:49:22;9.90;;;7.63;;
19810;SDS011;10065;49.632;8.346;2023-10-19T23:20:17;12.30;;;9.17;;
19810;SDS011;10065;49.632;8.346;2023-10-19T23:23:15;13.60;;;9.17;;
19810;SDS011;10065;49.632;8.346;2023-10-19T23:26:29;11.33;;;8.37;;
19810;SDS011;10065;49.632;8.346;2023-10-19T23:29:26;11.67;;;8.70;;
19810;SDS011;10065;49.632;8.346;2023-10-19T23:32:10;11.80;;;8.40;;
19810;SDS011;10065;49.632;8.346;2023-10-19T23:35:12;11.87;;;8.93;;
19810;SDS011;10065;49.632;8.346;2023-10-19T23:37:59;12.67;;;8.90;;
19810;SDS011;10065;49.632;8.346;2023-10-19T23:41:13;13.87;;;10.10;;
19810;SDS011;10065;49.632;8.346;2023-10-19T23:44:04;20.90;;;9.73;;
19810;SDS011;10065;49.632;8.346;2023-10-19T23:47:49;13.03;;;9.10;;
